New England — V7HF3 — position and weather

sailwx.info

Track history (hours):
 
Tides and Currents Weather Stations Pressure Air Temp Water Temp Dewpoint Dewpoint Depression Visibility Wind Speed Wind Dir Waves Ship Positions

New England

Last reported at 2017-Sep-17 19:34 UTC. Time now 2017-Sep-24 05:20 UTC.
Position N 43°39' W 068°50'.

Length 182 m; draft 10.2 m.

Type: Ship. MMSI: 538002220.

Date/timePositionNaut miles runAvg speedWind from/ knotsBaromVisibWave heightAir tempDewpointWater temp
2017-Sep-17 19:34N 43°39' W 068°50'213.3
2017-Sep-17 19:27N 43°39' W 068°52'  
2017-Sep-15 14:56N 43°39' W 070°13'0 0.6
2017-Sep-15 14:30N 43°39' W 070°13'3 6.2
2017-Sep-15 14:00N 43°37' W 070°10'5 9.5
2017-Sep-15 13:31N 43°37' W 070°03'713.4
2017-Sep-15 13:01N 43°37' W 069°54'713.6
2017-Sep-15 12:30N 43°36' W 069°44'  
2017-Sep-12 02:31N 42°45' W 070°05'013.2
2017-Sep-12 02:30N 42°45' W 070°06'713.2
2017-Sep-12 02:00N 42°42' W 070°13'713.5
2017-Sep-12 01:30N 42°38' W 070°21'713.8
2017-Sep-12 01:00N 42°35' W 070°29'713.7
2017-Sep-12 00:30N 42°31' W 070°37'713.6
2017-Sep-12 00:00N 42°27' W 070°44'713.6
2017-Sep-11 23:30N 42°23' W 070°52'511.0
2017-Sep-11 23:01N 42°20' W 070°58'  
2017-Sep-09 14:11N 42°23' W 071°03'1 3.9
2017-Sep-09 14:00N 42°22' W 071°03'4 6.9
2017-Sep-09 13:28N 42°20' W 070°59'0 0.9
2017-Sep-09 12:59N 42°20' W 070°58'0 0.2
2017-Sep-09 12:29N 42°20' W 070°58'0 0.1
2017-Sep-09 11:59N 42°20' W 070°58'0 0.0
2017-Sep-09 11:29N 42°20' W 070°58'0 0.0
2017-Sep-09 08:20N 42°20' W 070°58'0 0.0
2017-Sep-09 06:53N 42°20' W 070°58'0 0.1
2017-Sep-09 06:26N 42°20' W 070°58'0 0.0
2017-Sep-09 05:59N 42°20' W 070°58'0 0.1
2017-Sep-09 05:29N 42°20' W 070°58'0 0.1
2017-Sep-09 04:59N 42°20' W 070°58'0 0.0
2017-Sep-09 04:29N 42°20' W 070°58'0 0.1
2017-Sep-09 03:59N 42°20' W 070°58'0 0.0
2017-Sep-09 03:29N 42°20' W 070°58'0 0.1
2017-Sep-09 02:59N 42°20' W 070°58'0 0.1
2017-Sep-09 02:29N 42°20' W 070°58'0 0.1
2017-Sep-09 01:59N 42°20' W 070°58'0 0.2
2017-Sep-09 01:29N 42°20' W 070°58'0 0.1
2017-Sep-09 00:59N 42°20' W 070°58'0 0.1
2017-Sep-09 00:23N 42°20' W 070°58'0 0.0
2017-Sep-08 21:14N 42°20' W 070°58'0 0.0
2017-Sep-08 20:59N 42°20' W 070°58'0 0.0
2017-Sep-08 19:47N 42°20' W 070°58'0 0.0
2017-Sep-08 19:26N 42°20' W 070°58'0 0.0
2017-Sep-08 18:53N 42°20' W 070°58'0 0.0
2017-Sep-08 17:47N 42°20' W 070°58'0 0.5
2017-Sep-08 17:29N 42°20' W 070°58'0 0.1
2017-Sep-08 16:56N 42°20' W 070°58'0 0.0
2017-Sep-08 16:29N 42°20' W 070°58'0 0.0
2017-Sep-08 15:59N 42°20' W 070°58'0 0.0
2017-Sep-08 15:29N 42°20' W 070°58'0 0.0
2017-Sep-08 14:59N 42°20' W 070°58'0 0.0
2017-Sep-08 14:29N 42°20' W 070°58'0 0.1
2017-Sep-08 13:59N 42°20' W 070°58'0 0.0
2017-Sep-08 13:29N 42°20' W 070°58'0 0.5
2017-Sep-08 12:59N 42°20' W 070°58'2 4.6
2017-Sep-08 12:30N 42°22' W 070°55'  
Track history (hours):
 
Tides and Currents Weather Stations Pressure Air Temp Water Temp Dewpoint Dewpoint Depression Visibility Wind Speed Wind Dir Waves Ship Positions

New England

Last reported at 2017-Sep-17 19:34 UTC. Time now 2017-Sep-24 05:20 UTC.
Position N 43°39' W 068°50'.

Length 182 m; draft 10.2 m.

Type: Ship. MMSI: 538002220.

Date/timePositionNaut miles runAvg speedWind from/ knotsBaromVisibWave heightAir tempDewpointWater temp
2017-Sep-17 19:34N 43°39' W 068°50'213.3
2017-Sep-17 19:27N 43°39' W 068°52'  
2017-Sep-15 14:56N 43°39' W 070°13'0 0.6
2017-Sep-15 14:30N 43°39' W 070°13'3 6.2
2017-Sep-15 14:00N 43°37' W 070°10'5 9.5
2017-Sep-15 13:31N 43°37' W 070°03'713.4
2017-Sep-15 13:01N 43°37' W 069°54'713.6
2017-Sep-15 12:30N 43°36' W 069°44'  
2017-Sep-12 02:31N 42°45' W 070°05'013.2
2017-Sep-12 02:30N 42°45' W 070°06'713.2
2017-Sep-12 02:00N 42°42' W 070°13'713.5
2017-Sep-12 01:30N 42°38' W 070°21'713.8
2017-Sep-12 01:00N 42°35' W 070°29'713.7
2017-Sep-12 00:30N 42°31' W 070°37'713.6
2017-Sep-12 00:00N 42°27' W 070°44'713.6
2017-Sep-11 23:30N 42°23' W 070°52'511.0
2017-Sep-11 23:01N 42°20' W 070°58'  
2017-Sep-09 14:11N 42°23' W 071°03'1 3.9
2017-Sep-09 14:00N 42°22' W 071°03'4 6.9
2017-Sep-09 13:28N 42°20' W 070°59'0 0.9
2017-Sep-09 12:59N 42°20' W 070°58'0 0.2
2017-Sep-09 12:29N 42°20' W 070°58'0 0.1
2017-Sep-09 11:59N 42°20' W 070°58'0 0.0
2017-Sep-09 11:29N 42°20' W 070°58'0 0.0
2017-Sep-09 08:20N 42°20' W 070°58'0 0.0
2017-Sep-09 06:53N 42°20' W 070°58'0 0.1
2017-Sep-09 06:26N 42°20' W 070°58'0 0.0
2017-Sep-09 05:59N 42°20' W 070°58'0 0.1
2017-Sep-09 05:29N 42°20' W 070°58'0 0.1
2017-Sep-09 04:59N 42°20' W 070°58'0 0.0
2017-Sep-09 04:29N 42°20' W 070°58'0 0.1
2017-Sep-09 03:59N 42°20' W 070°58'0 0.0
2017-Sep-09 03:29N 42°20' W 070°58'0 0.1
2017-Sep-09 02:59N 42°20' W 070°58'0 0.1
2017-Sep-09 02:29N 42°20' W 070°58'0 0.1
2017-Sep-09 01:59N 42°20' W 070°58'0 0.2
2017-Sep-09 01:29N 42°20' W 070°58'0 0.1
2017-Sep-09 00:59N 42°20' W 070°58'0 0.1
2017-Sep-09 00:23N 42°20' W 070°58'0 0.0
2017-Sep-08 21:14N 42°20' W 070°58'0 0.0
2017-Sep-08 20:59N 42°20' W 070°58'0 0.0
2017-Sep-08 19:47N 42°20' W 070°58'0 0.0
2017-Sep-08 19:26N 42°20' W 070°58'0 0.0
2017-Sep-08 18:53N 42°20' W 070°58'0 0.0
2017-Sep-08 17:47N 42°20' W 070°58'0 0.5
2017-Sep-08 17:29N 42°20' W 070°58'0 0.1
2017-Sep-08 16:56N 42°20' W 070°58'0 0.0
2017-Sep-08 16:29N 42°20' W 070°58'0 0.0
2017-Sep-08 15:59N 42°20' W 070°58'0 0.0
2017-Sep-08 15:29N 42°20' W 070°58'0 0.0
2017-Sep-08 14:59N 42°20' W 070°58'0 0.0
2017-Sep-08 14:29N 42°20' W 070°58'0 0.1
2017-Sep-08 13:59N 42°20' W 070°58'0 0.0
2017-Sep-08 13:29N 42°20' W 070°58'0 0.5
2017-Sep-08 12:59N 42°20' W 070°58'2 4.6
2017-Sep-08 12:30N 42°22' W 070°55'  

Dump ship's entire track history